Gentle Leader — C6WY9 — position and weather

sailwx.info

Track history (hours):
 
Tides and Currents Weather Stations Pressure Air Temp Water Temp Dewpoint Dewpoint Depression Visibility Wind Speed Wind Dir Waves Ship Positions

Gentle Leader

Last reported at 2015-Feb-27 06:31 UTC. Time now 2015-Feb-27 07:29 UTC.
Position N 50°53' W 001°24'.

Length 200 m; draft 8.9 m.

Type: Cargo ship. MMSI: 311003300.

Date/timePositionNaut miles runAvg speedWind from/ knotsBaromVisibWave heightAir tempDewpointWater temp
2015-Feb-27 06:31N 50°53' W 001°24'0 0.0
2015-Feb-27 05:31N 50°53' W 001°24'0 0.0
2015-Feb-27 04:31N 50°53' W 001°24'0 0.0
2015-Feb-27 03:31N 50°53' W 001°24'0 0.0
2015-Feb-27 02:31N 50°53' W 001°24'0 0.0
2015-Feb-27 01:31N 50°53' W 001°24'0 0.0
2015-Feb-27 00:31N 50°53' W 001°24'0 0.0
2015-Feb-26 23:31N 50°53' W 001°24'0 0.0
2015-Feb-26 22:31N 50°53' W 001°24'0 0.0
2015-Feb-26 21:31N 50°53' W 001°24'0 0.0
2015-Feb-26 20:31N 50°53' W 001°24'0 0.0
2015-Feb-26 19:31N 50°53' W 001°24'0 0.0
2015-Feb-26 18:31N 50°53' W 001°24'0 0.0
2015-Feb-26 17:31N 50°53' W 001°24'0 0.0
2015-Feb-26 16:31N 50°53' W 001°24'0 0.0
2015-Feb-26 15:31N 50°53' W 001°24'0 0.0
2015-Feb-26 14:31N 50°53' W 001°24'0 0.0
2015-Feb-26 13:31N 50°53' W 001°24'0 0.0
2015-Feb-26 12:31N 50°53' W 001°24'0 0.0
2015-Feb-26 11:31N 50°53' W 001°24'0 0.0
2015-Feb-26 10:31N 50°53' W 001°24'0 0.0
2015-Feb-26 09:31N 50°53' W 001°24'0 0.0
2015-Feb-26 08:31N 50°53' W 001°24'0 0.0
2015-Feb-26 07:31N 50°53' W 001°24'0 0.0
2015-Feb-26 06:31N 50°53' W 001°24'0 0.0
2015-Feb-26 05:31N 50°53' W 001°24'0 0.0
2015-Feb-26 04:33N 50°53' W 001°24'6 5.8
2015-Feb-26 03:34N 50°49' W 001°18'1212.4
2015-Feb-26 02:34N 50°43' W 001°01'1111.3
2015-Feb-26 01:33N 50°33' W 000°53'2 2.2
2015-Feb-26 00:33N 50°31' W 000°55'1 0.8
2015-Feb-25 23:32N 50°31' W 000°56'3 2.6
2015-Feb-25 22:32N 50°31' W 001°00'1 0.6
2015-Feb-25 20:26N 50°30' W 001°02'1 0.9
2015-Feb-25 19:33N 50°30' W 001°01'1 1.4
2015-Feb-25 18:33N 50°30' W 000°58'9 8.7
2015-Feb-25 17:33N 50°31' W 000°45'10 9.8
2015-Feb-25 16:33N 50°31' W 000°29'11 8.7
2015-Feb-25 15:16N 50°32' W 000°12'6 7.9
2015-Feb-25 14:33N 50°32' W 000°03'7 7.4
2015-Feb-25 13:33N 50°34' E 000°08'7 7.3
2015-Feb-25 12:33N 50°36' E 000°19'8 7.9
2015-Feb-25 11:32N 50°38' E 000°32'9 9.1
2015-Feb-25 10:33N 50°43' E 000°44'2010.0
2015-Feb-25 08:33N 50°55' E 001°09'9 9.3
2015-Feb-25 07:34N 51°01' E 001°21'8 7.9
2015-Feb-25 06:33N 51°05' E 001°30'7 6.9
2015-Feb-25 05:33N 51°10' E 001°39'8 7.9
2015-Feb-25 04:33N 51°16' E 001°47'8 8.3
2015-Feb-25 03:34N 51°23' E 001°53'9 9.1
2015-Feb-25 02:33N 51°31' E 002°01'1010.2
2015-Feb-25 01:33N 51°38' E 002°12'1110.6
2015-Feb-25 00:33N 51°46' E 002°24'11910.8
2015-Feb-24 13:34N 53°17' E 004°29'1413.8
2015-Feb-24 12:34N 53°29' E 004°41'1413.6
2015-Feb-24 11:34N 53°34' E 005°02'1312.6
2015-Feb-24 10:34N 53°38' E 005°22'1312.6
2015-Feb-24 09:34N 53°42' E 005°42'1313.3
2015-Feb-24 08:33N 53°47' E 006°04'4914.0
2015-Feb-24 05:05N 53°58' E 007°24'714.0
2015-Feb-24 04:33N 53°59' E 007°36'1110.9
2015-Feb-24 03:33N 53°53' E 007°51'1212.0
2015-Feb-24 02:34N 53°47' E 008°09'1312.8
2015-Feb-24 01:33N 53°39' E 008°25'6 6.5
2015-Feb-24 00:33N 53°34' E 008°33'0 0.4
2015-Feb-23 23:32N 53°35' E 008°33'0 0.0
2015-Feb-23 22:32N 53°35' E 008°33'0 0.0
2015-Feb-23 21:32N 53°35' E 008°33'0 0.0
2015-Feb-23 20:32N 53°35' E 008°33'0 0.0
2015-Feb-23 19:32N 53°35' E 008°33'0 0.0
2015-Feb-23 18:32N 53°35' E 008°33'0 0.0
2015-Feb-23 17:32N 53°35' E 008°33'0 0.0
2015-Feb-23 16:32N 53°35' E 008°33'0 0.0
2015-Feb-23 15:32N 53°35' E 008°33'0 0.0
2015-Feb-23 14:32N 53°35' E 008°33'0 0.0
2015-Feb-23 13:32N 53°35' E 008°33'0 0.0
2015-Feb-23 12:29N 53°35' E 008°33'0 0.0
2015-Feb-23 11:32N 53°35' E 008°33'0 0.0
2015-Feb-23 10:32N 53°35' E 008°33'0 0.0
2015-Feb-23 09:32N 53°35' E 008°33'0 0.0
2015-Feb-23 08:32N 53°35' E 008°33'0 0.0
2015-Feb-23 07:32N 53°35' E 008°33'0 0.0
2015-Feb-23 06:32N 53°35' E 008°33'0 0.0
2015-Feb-23 05:32N 53°35' E 008°33'0 0.0
2015-Feb-23 04:32N 53°35' E 008°33'0 0.0
2015-Feb-23 03:32N 53°35' E 008°33'0 0.0
2015-Feb-23 02:32N 53°35' E 008°33'0 0.0
2015-Feb-23 01:32N 53°35' E 008°33'0 0.0
2015-Feb-23 00:32N 53°35' E 008°33'0 0.0
2015-Feb-22 23:32N 53°35' E 008°33'0 0.0
2015-Feb-22 22:32N 53°35' E 008°33'0 0.0
2015-Feb-22 21:32N 53°35' E 008°33'0 0.0
2015-Feb-22 20:32N 53°35' E 008°33'0 0.0
2015-Feb-22 19:33N 53°35' E 008°33'1 0.9
2015-Feb-22 18:32N 53°34' E 008°34'0 0.0
2015-Feb-22 17:32N 53°34' E 008°34'0 0.0
2015-Feb-22 16:32N 53°34' E 008°34'0 0.0
2015-Feb-22 15:32N 53°34' E 008°34'0 0.0
2015-Feb-22 14:32N 53°34' E 008°34'0 0.0
2015-Feb-22 13:32N 53°34' E 008°34'0 0.0
2015-Feb-22 12:32N 53°34' E 008°34'0 0.2
2015-Feb-22 11:33N 53°34' E 008°34'1 0.7
2015-Feb-22 10:33N 53°34' E 008°33'3 2.6
2015-Feb-22 09:33N 53°36' E 008°30'1515.4
2015-Feb-22 08:34N 53°46' E 008°10'1414.1
2015-Feb-22 07:33N 53°53' E 007°49'8 7.9
2015-Feb-22 06:33N 53°57' E 007°38'1 0.9
2015-Feb-22 05:33N 53°57' E 007°39'7 7.0
2015-Feb-22 04:30N 53°54' E 007°27'1413.9
2015-Feb-22 03:31N 53°51' E 007°05'3416.9
2015-Feb-22 01:32N 53°42' E 006°10'1717.5
2015-Feb-22 00:33N 53°38' E 005°42'1817.8
2015-Feb-21 23:33N 53°32' E 005°14'1817.9
2015-Feb-21 22:33N 53°25' E 004°46'1817.4
2015-Feb-21 21:31N 53°09' E 004°30'1616.4
2015-Feb-21 20:33N 52°55' E 004°18'1816.6
2015-Feb-21 19:28N 52°40' E 004°02'1617.7
2015-Feb-21 18:32N 52°29' E 003°42'7318.2
2015-Feb-21 14:31N 51°25' E 002°43'1010.1
2015-Feb-21 13:33N 51°25' E 002°59'10 9.5
2015-Feb-21 12:30N 51°20' E 003°13'1 1.1
2015-Feb-21 11:33N 51°19' E 003°13'0 0.5
2015-Feb-21 10:31N 51°19' E 003°14'0 0.0
2015-Feb-21 09:31N 51°19' E 003°14'0 0.0
2015-Feb-21 08:31N 51°19' E 003°14'0 0.0
2015-Feb-21 07:31N 51°19' E 003°14'0 0.0
2015-Feb-21 06:31N 51°19' E 003°14'0 0.0
2015-Feb-21 05:31N 51°19' E 003°14'0 0.0
2015-Feb-21 04:31N 51°19' E 003°14'0 0.0
2015-Feb-21 03:31N 51°19' E 003°14'0 0.0
2015-Feb-21 02:31N 51°19' E 003°14'0 0.0
2015-Feb-21 01:31N 51°19' E 003°14'0 0.0
2015-Feb-21 00:31N 51°19' E 003°14'0 0.0
2015-Feb-20 23:31N 51°19' E 003°14'0 0.0
2015-Feb-20 22:31N 51°19' E 003°14'0 0.0
2015-Feb-20 21:31N 51°19' E 003°14'0 0.0
2015-Feb-20 20:31N 51°19' E 003°14'0 0.0
2015-Feb-20 19:31N 51°19' E 003°14'0 0.0
2015-Feb-20 18:31N 51°19' E 003°14'0 0.0
2015-Feb-20 17:31N 51°19' E 003°14'0 0.0
2015-Feb-20 16:31N 51°19' E 003°14'0 0.0
2015-Feb-20 15:31N 51°19' E 003°14'0 0.0
2015-Feb-20 14:31N 51°19' E 003°14'0 0.0
2015-Feb-20 13:31N 51°19' E 003°14'0 0.0
2015-Feb-20 12:31N 51°19' E 003°14'0 0.0
2015-Feb-20 11:31N 51°19' E 003°14'0 0.0
2015-Feb-20 10:31N 51°19' E 003°14'0 0.0
2015-Feb-20 09:31N 51°19' E 003°14'0 0.0
2015-Feb-20 08:31N 51°19' E 003°14'0 0.0
2015-Feb-20 07:31N 51°19' E 003°14'0 0.0
2015-Feb-20 06:31N 51°19' E 003°14'0 0.0
2015-Feb-20 05:31N 51°19' E 003°14'0 0.0
2015-Feb-20 04:31N 51°19' E 003°14'0 0.0
2015-Feb-20 03:28N 51°19' E 003°14'0 0.0
2015-Feb-20 02:31N 51°19' E 003°14'0 0.0
2015-Feb-20 01:31N 51°19' E 003°14'0 0.0
2015-Feb-20 00:31N 51°19' E 003°14'0 0.0
2015-Feb-19 23:31N 51°19' E 003°14'0 0.0
2015-Feb-19 22:31N 51°19' E 003°14'0 0.0
2015-Feb-19 21:31N 51°19' E 003°14'0 0.0
2015-Feb-19 20:31N 51°19' E 003°14'0 0.0
2015-Feb-19 19:31N 51°19' E 003°14'0 0.0
2015-Feb-19 18:31N 51°19' E 003°14'0 0.0
2015-Feb-19 17:31N 51°19' E 003°14'0 0.0
2015-Feb-19 16:31N 51°19' E 003°14'0 0.0
2015-Feb-19 15:31N 51°19' E 003°14'0 0.0
2015-Feb-19 14:31N 51°19' E 003°14'2 1.6
2015-Feb-19 13:33N 51°20' E 003°13'0 0.0
2015-Feb-19 12:33N 51°20' E 003°13'9 8.7
2015-Feb-19 11:33N 51°25' E 003°01'4 3.6
2015-Feb-19 10:33N 51°22' E 002°57'1211.3
2015-Feb-19 09:29N 51°21' E 002°37'9 9.5
2015-Feb-19 08:33N 51°20' E 002°23'1212.0
2015-Feb-19 07:33N 51°14' E 002°07'1110.9
2015-Feb-19 06:33N 51°09' E 001°52'1111.3
2015-Feb-19 05:33N 51°01' E 001°38'1210.9
2015-Feb-19 04:30N 50°52' E 001°27'5112.1
2015-Feb-19 00:16N 50°21' E 000°23'23312.4
2015-Feb-18 05:33N 50°31' W 005°43'1313.1
2015-Feb-18 04:33N 50°39' W 005°26'1312.8
2015-Feb-18 03:33N 50°48' W 005°11'7313.5
2015-Feb-17 22:11N 51°20' W 003°28'1015.2
2015-Feb-17 21:33N 51°22' W 003°12'1717.1
2015-Feb-17 20:33N 51°29' W 002°48'3 3.1
2015-Feb-17 19:32N 51°30' W 002°43'0 0.0
2015-Feb-17 17:32N 51°30' W 002°43'0 0.0
2015-Feb-17 16:32N 51°30' W 002°43'0 0.0
2015-Feb-17 15:32N 51°30' W 002°43'0 0.0
2015-Feb-17 14:32N 51°30' W 002°43'0 0.0
2015-Feb-17 13:32N 51°30' W 002°43'0 0.0
2015-Feb-17 12:32N 51°30' W 002°43'0 0.0
2015-Feb-17 11:32N 51°30' W 002°43'0 0.0
2015-Feb-17 10:32N 51°30' W 002°43'0 0.0
2015-Feb-17 09:32N 51°30' W 002°43'0 0.0
2015-Feb-17 08:32N 51°30' W 002°43'0 0.0
2015-Feb-17 07:32N 51°30' W 002°43'0 0.0
2015-Feb-17 06:32N 51°30' W 002°43'  
Track history (hours):
 
Tides and Currents Weather Stations Pressure Air Temp Water Temp Dewpoint Dewpoint Depression Visibility Wind Speed Wind Dir Waves Ship Positions

Gentle Leader

Last reported at 2015-Feb-27 06:31 UTC. Time now 2015-Feb-27 07:29 UTC.
Position N 50°53' W 001°24'.

Length 200 m; draft 8.9 m.

Type: Cargo ship. MMSI: 311003300.

Date/timePositionNaut miles runAvg speedWind from/ knotsBaromVisibWave heightAir tempDewpointWater temp
2015-Feb-27 06:31N 50°53' W 001°24'0 0.0
2015-Feb-27 05:31N 50°53' W 001°24'0 0.0
2015-Feb-27 04:31N 50°53' W 001°24'0 0.0
2015-Feb-27 03:31N 50°53' W 001°24'0 0.0
2015-Feb-27 02:31N 50°53' W 001°24'0 0.0
2015-Feb-27 01:31N 50°53' W 001°24'0 0.0
2015-Feb-27 00:31N 50°53' W 001°24'0 0.0
2015-Feb-26 23:31N 50°53' W 001°24'0 0.0
2015-Feb-26 22:31N 50°53' W 001°24'0 0.0
2015-Feb-26 21:31N 50°53' W 001°24'0 0.0
2015-Feb-26 20:31N 50°53' W 001°24'0 0.0
2015-Feb-26 19:31N 50°53' W 001°24'0 0.0
2015-Feb-26 18:31N 50°53' W 001°24'0 0.0
2015-Feb-26 17:31N 50°53' W 001°24'0 0.0
2015-Feb-26 16:31N 50°53' W 001°24'0 0.0
2015-Feb-26 15:31N 50°53' W 001°24'0 0.0
2015-Feb-26 14:31N 50°53' W 001°24'0 0.0
2015-Feb-26 13:31N 50°53' W 001°24'0 0.0
2015-Feb-26 12:31N 50°53' W 001°24'0 0.0
2015-Feb-26 11:31N 50°53' W 001°24'0 0.0
2015-Feb-26 10:31N 50°53' W 001°24'0 0.0
2015-Feb-26 09:31N 50°53' W 001°24'0 0.0
2015-Feb-26 08:31N 50°53' W 001°24'0 0.0
2015-Feb-26 07:31N 50°53' W 001°24'0 0.0
2015-Feb-26 06:31N 50°53' W 001°24'0 0.0
2015-Feb-26 05:31N 50°53' W 001°24'0 0.0
2015-Feb-26 04:33N 50°53' W 001°24'6 5.8
2015-Feb-26 03:34N 50°49' W 001°18'1212.4
2015-Feb-26 02:34N 50°43' W 001°01'1111.3
2015-Feb-26 01:33N 50°33' W 000°53'2 2.2
2015-Feb-26 00:33N 50°31' W 000°55'1 0.8
2015-Feb-25 23:32N 50°31' W 000°56'3 2.6
2015-Feb-25 22:32N 50°31' W 001°00'1 0.6
2015-Feb-25 20:26N 50°30' W 001°02'1 0.9
2015-Feb-25 19:33N 50°30' W 001°01'1 1.4
2015-Feb-25 18:33N 50°30' W 000°58'9 8.7
2015-Feb-25 17:33N 50°31' W 000°45'10 9.8
2015-Feb-25 16:33N 50°31' W 000°29'11 8.7
2015-Feb-25 15:16N 50°32' W 000°12'6 7.9
2015-Feb-25 14:33N 50°32' W 000°03'7 7.4
2015-Feb-25 13:33N 50°34' E 000°08'7 7.3
2015-Feb-25 12:33N 50°36' E 000°19'8 7.9
2015-Feb-25 11:32N 50°38' E 000°32'9 9.1
2015-Feb-25 10:33N 50°43' E 000°44'2010.0
2015-Feb-25 08:33N 50°55' E 001°09'9 9.3
2015-Feb-25 07:34N 51°01' E 001°21'8 7.9
2015-Feb-25 06:33N 51°05' E 001°30'7 6.9
2015-Feb-25 05:33N 51°10' E 001°39'8 7.9
2015-Feb-25 04:33N 51°16' E 001°47'8 8.3
2015-Feb-25 03:34N 51°23' E 001°53'9 9.1
2015-Feb-25 02:33N 51°31' E 002°01'1010.2
2015-Feb-25 01:33N 51°38' E 002°12'1110.6
2015-Feb-25 00:33N 51°46' E 002°24'11910.8
2015-Feb-24 13:34N 53°17' E 004°29'1413.8
2015-Feb-24 12:34N 53°29' E 004°41'1413.6
2015-Feb-24 11:34N 53°34' E 005°02'1312.6
2015-Feb-24 10:34N 53°38' E 005°22'1312.6
2015-Feb-24 09:34N 53°42' E 005°42'1313.3
2015-Feb-24 08:33N 53°47' E 006°04'4914.0
2015-Feb-24 05:05N 53°58' E 007°24'714.0
2015-Feb-24 04:33N 53°59' E 007°36'1110.9
2015-Feb-24 03:33N 53°53' E 007°51'1212.0
2015-Feb-24 02:34N 53°47' E 008°09'1312.8
2015-Feb-24 01:33N 53°39' E 008°25'6 6.5
2015-Feb-24 00:33N 53°34' E 008°33'0 0.4
2015-Feb-23 23:32N 53°35' E 008°33'0 0.0
2015-Feb-23 22:32N 53°35' E 008°33'0 0.0
2015-Feb-23 21:32N 53°35' E 008°33'0 0.0
2015-Feb-23 20:32N 53°35' E 008°33'0 0.0
2015-Feb-23 19:32N 53°35' E 008°33'0 0.0
2015-Feb-23 18:32N 53°35' E 008°33'0 0.0
2015-Feb-23 17:32N 53°35' E 008°33'0 0.0
2015-Feb-23 16:32N 53°35' E 008°33'0 0.0
2015-Feb-23 15:32N 53°35' E 008°33'0 0.0
2015-Feb-23 14:32N 53°35' E 008°33'0 0.0
2015-Feb-23 13:32N 53°35' E 008°33'0 0.0
2015-Feb-23 12:29N 53°35' E 008°33'0 0.0
2015-Feb-23 11:32N 53°35' E 008°33'0 0.0
2015-Feb-23 10:32N 53°35' E 008°33'0 0.0
2015-Feb-23 09:32N 53°35' E 008°33'0 0.0
2015-Feb-23 08:32N 53°35' E 008°33'0 0.0
2015-Feb-23 07:32N 53°35' E 008°33'0 0.0
2015-Feb-23 06:32N 53°35' E 008°33'0 0.0
2015-Feb-23 05:32N 53°35' E 008°33'0 0.0
2015-Feb-23 04:32N 53°35' E 008°33'0 0.0
2015-Feb-23 03:32N 53°35' E 008°33'0 0.0
2015-Feb-23 02:32N 53°35' E 008°33'0 0.0
2015-Feb-23 01:32N 53°35' E 008°33'0 0.0
2015-Feb-23 00:32N 53°35' E 008°33'0 0.0
2015-Feb-22 23:32N 53°35' E 008°33'0 0.0
2015-Feb-22 22:32N 53°35' E 008°33'0 0.0
2015-Feb-22 21:32N 53°35' E 008°33'0 0.0
2015-Feb-22 20:32N 53°35' E 008°33'0 0.0
2015-Feb-22 19:33N 53°35' E 008°33'1 0.9
2015-Feb-22 18:32N 53°34' E 008°34'0 0.0
2015-Feb-22 17:32N 53°34' E 008°34'0 0.0
2015-Feb-22 16:32N 53°34' E 008°34'0 0.0
2015-Feb-22 15:32N 53°34' E 008°34'0 0.0
2015-Feb-22 14:32N 53°34' E 008°34'0 0.0
2015-Feb-22 13:32N 53°34' E 008°34'0 0.0
2015-Feb-22 12:32N 53°34' E 008°34'0 0.2
2015-Feb-22 11:33N 53°34' E 008°34'1 0.7
2015-Feb-22 10:33N 53°34' E 008°33'3 2.6
2015-Feb-22 09:33N 53°36' E 008°30'1515.4
2015-Feb-22 08:34N 53°46' E 008°10'1414.1
2015-Feb-22 07:33N 53°53' E 007°49'8 7.9
2015-Feb-22 06:33N 53°57' E 007°38'1 0.9
2015-Feb-22 05:33N 53°57' E 007°39'7 7.0
2015-Feb-22 04:30N 53°54' E 007°27'1413.9
2015-Feb-22 03:31N 53°51' E 007°05'3416.9
2015-Feb-22 01:32N 53°42' E 006°10'1717.5
2015-Feb-22 00:33N 53°38' E 005°42'1817.8
2015-Feb-21 23:33N 53°32' E 005°14'1817.9
2015-Feb-21 22:33N 53°25' E 004°46'1817.4
2015-Feb-21 21:31N 53°09' E 004°30'1616.4
2015-Feb-21 20:33N 52°55' E 004°18'1816.6
2015-Feb-21 19:28N 52°40' E 004°02'1617.7
2015-Feb-21 18:32N 52°29' E 003°42'7318.2
2015-Feb-21 14:31N 51°25' E 002°43'1010.1
2015-Feb-21 13:33N 51°25' E 002°59'10 9.5
2015-Feb-21 12:30N 51°20' E 003°13'1 1.1
2015-Feb-21 11:33N 51°19' E 003°13'0 0.5
2015-Feb-21 10:31N 51°19' E 003°14'0 0.0
2015-Feb-21 09:31N 51°19' E 003°14'0 0.0
2015-Feb-21 08:31N 51°19' E 003°14'0 0.0
2015-Feb-21 07:31N 51°19' E 003°14'0 0.0
2015-Feb-21 06:31N 51°19' E 003°14'0 0.0
2015-Feb-21 05:31N 51°19' E 003°14'0 0.0
2015-Feb-21 04:31N 51°19' E 003°14'0 0.0
2015-Feb-21 03:31N 51°19' E 003°14'0 0.0
2015-Feb-21 02:31N 51°19' E 003°14'0 0.0
2015-Feb-21 01:31N 51°19' E 003°14'0 0.0
2015-Feb-21 00:31N 51°19' E 003°14'0 0.0
2015-Feb-20 23:31N 51°19' E 003°14'0 0.0
2015-Feb-20 22:31N 51°19' E 003°14'0 0.0
2015-Feb-20 21:31N 51°19' E 003°14'0 0.0
2015-Feb-20 20:31N 51°19' E 003°14'0 0.0
2015-Feb-20 19:31N 51°19' E 003°14'0 0.0
2015-Feb-20 18:31N 51°19' E 003°14'0 0.0
2015-Feb-20 17:31N 51°19' E 003°14'0 0.0
2015-Feb-20 16:31N 51°19' E 003°14'0 0.0
2015-Feb-20 15:31N 51°19' E 003°14'0 0.0
2015-Feb-20 14:31N 51°19' E 003°14'0 0.0
2015-Feb-20 13:31N 51°19' E 003°14'0 0.0
2015-Feb-20 12:31N 51°19' E 003°14'0 0.0
2015-Feb-20 11:31N 51°19' E 003°14'0 0.0
2015-Feb-20 10:31N 51°19' E 003°14'0 0.0
2015-Feb-20 09:31N 51°19' E 003°14'0 0.0
2015-Feb-20 08:31N 51°19' E 003°14'0 0.0
2015-Feb-20 07:31N 51°19' E 003°14'0 0.0
2015-Feb-20 06:31N 51°19' E 003°14'0 0.0
2015-Feb-20 05:31N 51°19' E 003°14'0 0.0
2015-Feb-20 04:31N 51°19' E 003°14'0 0.0
2015-Feb-20 03:28N 51°19' E 003°14'0 0.0
2015-Feb-20 02:31N 51°19' E 003°14'0 0.0
2015-Feb-20 01:31N 51°19' E 003°14'0 0.0
2015-Feb-20 00:31N 51°19' E 003°14'0 0.0
2015-Feb-19 23:31N 51°19' E 003°14'0 0.0
2015-Feb-19 22:31N 51°19' E 003°14'0 0.0
2015-Feb-19 21:31N 51°19' E 003°14'0 0.0
2015-Feb-19 20:31N 51°19' E 003°14'0 0.0
2015-Feb-19 19:31N 51°19' E 003°14'0 0.0
2015-Feb-19 18:31N 51°19' E 003°14'0 0.0
2015-Feb-19 17:31N 51°19' E 003°14'0 0.0
2015-Feb-19 16:31N 51°19' E 003°14'0 0.0
2015-Feb-19 15:31N 51°19' E 003°14'0 0.0
2015-Feb-19 14:31N 51°19' E 003°14'2 1.6
2015-Feb-19 13:33N 51°20' E 003°13'0 0.0
2015-Feb-19 12:33N 51°20' E 003°13'9 8.7
2015-Feb-19 11:33N 51°25' E 003°01'4 3.6
2015-Feb-19 10:33N 51°22' E 002°57'1211.3
2015-Feb-19 09:29N 51°21' E 002°37'9 9.5
2015-Feb-19 08:33N 51°20' E 002°23'1212.0
2015-Feb-19 07:33N 51°14' E 002°07'1110.9
2015-Feb-19 06:33N 51°09' E 001°52'1111.3
2015-Feb-19 05:33N 51°01' E 001°38'1210.9
2015-Feb-19 04:30N 50°52' E 001°27'5112.1
2015-Feb-19 00:16N 50°21' E 000°23'23312.4
2015-Feb-18 05:33N 50°31' W 005°43'1313.1
2015-Feb-18 04:33N 50°39' W 005°26'1312.8
2015-Feb-18 03:33N 50°48' W 005°11'7313.5
2015-Feb-17 22:11N 51°20' W 003°28'1015.2
2015-Feb-17 21:33N 51°22' W 003°12'1717.1
2015-Feb-17 20:33N 51°29' W 002°48'3 3.1
2015-Feb-17 19:32N 51°30' W 002°43'0 0.0
2015-Feb-17 17:32N 51°30' W 002°43'0 0.0
2015-Feb-17 16:32N 51°30' W 002°43'0 0.0
2015-Feb-17 15:32N 51°30' W 002°43'0 0.0
2015-Feb-17 14:32N 51°30' W 002°43'0 0.0
2015-Feb-17 13:32N 51°30' W 002°43'0 0.0
2015-Feb-17 12:32N 51°30' W 002°43'0 0.0
2015-Feb-17 11:32N 51°30' W 002°43'0 0.0
2015-Feb-17 10:32N 51°30' W 002°43'0 0.0
2015-Feb-17 09:32N 51°30' W 002°43'0 0.0
2015-Feb-17 08:32N 51°30' W 002°43'0 0.0
2015-Feb-17 07:32N 51°30' W 002°43'0 0.0
2015-Feb-17 06:32N 51°30' W 002°43'  

Dump ship's entire track history